Terminal Aerodrome Forecast
Issued by NWS

Home | Current Version | Previous Version | Graphics & Text | Print | Product List | Glossary On
Versions: 1 2 3 4 5 6 7 8 9 10 11 12 13 14 15 16 17 18 19 20 21 22 23 24 25 26 27
457
FTUS43 KBIS 231615 AAD
TAFDIK
TAF AMD
KDIK 231615Z 2316/2412 10013G22KT 6SM -SHRA BR OVC006
      TEMPO 2317/2319 4SM -TSRA OVC005CB
     FM232200 10012G21KT 5SM BR OVC008
     FM240400 07007KT 6SM -SHRA VCTS OVC006CB
     FM240800 09008KT P6SM OVC015
     FM241000 17008KT P6SM OVC015=

USA.gov is the U.S. government's official web portal to all federal, state and local government web resources and services.